Terminal Aerodrome Forecast
Issued by NWS

Home | Current Version | Previous Version | Text Only | Print | Product List | Glossary Off
Versions: 1 2 3 4 5 6 7 8 9 10 11 12 13 14 15 16 17

208
FTUS43 KMPX 041720
TAFAXN
TAF
KAXN 041720Z 0418/0518 32011KT P6SM SCT015
     FM042200 31009KT P6SM BKN015
     FM050200 27004KT P6SM FEW020
     FM051000 18006KT P6SM BKN100
     FM051600 17007KT 1 1/2SM -SN SCT015 OVC022=

USA.gov is the U.S. government's official web portal to all federal, state and local government web resources and services.